EJU41EH LPPT-LPMA
Flight info
| Callsign | EJU41EH |
|---|---|
| Flight time | N/A |
| Altitude | 31000 |
| Route | ULVOT DCT GALPA DCT RAKUN |
| Aircraft | A320/M-SDE3FGHIRWY/LB1 |
Departure
| Time | 2026-05-07 17:21 |
|---|---|
| Airport | Lisbon Humberto Delgado Airport (LPPT) |
Arrival
| Time | N/A |
|---|---|
| Airport | Cristiano Ronaldo International Airport (LPMA) |
| Time | Latitude | Longitude | Altitude | Speed | Heading |
|---|---|---|---|---|---|
| 2026-05-07 16:25 | 38.76564 | -9.13396 | 350 ft | 0 kts | 73° |
| 2026-05-07 17:10 | 38.76557 | -9.13421 | 353 ft | 4 kts | 59° |
| 2026-05-07 17:10 | 38.76541 | -9.13445 | 354 ft | 4 kts | 19° |
| 2026-05-07 17:10 | 38.76526 | -9.13448 | 352 ft | 0 kts | 344° |
| 2026-05-07 17:12 | 38.76531 | -9.13449 | 353 ft | 0 kts | 344° |
| 2026-05-07 17:13 | 38.76536 | -9.13451 | 354 ft | 3 kts | 343° |
| 2026-05-07 17:13 | 38.76579 | -9.13467 | 346 ft | 9 kts | 344° |
| 2026-05-07 17:13 | 38.76635 | -9.13504 | 350 ft | 10 kts | 312° |
| 2026-05-07 17:13 | 38.76635 | -9.13595 | 346 ft | 11 kts | 259° |
| 2026-05-07 17:14 | 38.76620 | -9.13695 | 349 ft | 12 kts | 259° |
| 2026-05-07 17:14 | 38.76603 | -9.13805 | 346 ft | 13 kts | 258° |
| 2026-05-07 17:14 | 38.76582 | -9.13929 | 351 ft | 15 kts | 257° |
| 2026-05-07 17:14 | 38.76534 | -9.14044 | 357 ft | 15 kts | 231° |
| 2026-05-07 17:15 | 38.76495 | -9.14137 | 352 ft | 12 kts | 263° |
| 2026-05-07 17:15 | 38.76513 | -9.14228 | 335 ft | 6 kts | 292° |
| 2026-05-07 17:15 | 38.76518 | -9.14244 | 336 ft | 0 kts | 292° |
| 2026-05-07 17:16 | 38.76524 | -9.14262 | 338 ft | 5 kts | 292° |
| 2026-05-07 17:16 | 38.76536 | -9.14298 | 336 ft | 0 kts | 293° |
| 2026-05-07 17:19 | 38.76539 | -9.14308 | 334 ft | 6 kts | 293° |
| 2026-05-07 17:19 | 38.76572 | -9.14393 | 331 ft | 11 kts | 320° |
| 2026-05-07 17:20 | 38.76630 | -9.14395 | 336 ft | 0 kts | 18° |
| 2026-05-07 17:20 | 38.76719 | -9.14349 | 337 ft | 41 kts | 22° |
| 2026-05-07 17:21 | 38.77199 | -9.14095 | 360 ft | 105 kts | 23° |
| 2026-05-07 17:21 | 38.78041 | -9.13643 | 369 ft | 155 kts | 22° |
| 2026-05-07 17:21 | 38.79111 | -9.13057 | 632 ft | 176 kts | 17° |
| 2026-05-07 17:21 | 38.80236 | -9.12455 | 1305 ft | 175 kts | 17° |
| 2026-05-07 17:22 | 38.81377 | -9.11839 | 1877 ft | 184 kts | 21° |
| 2026-05-07 17:22 | 38.82561 | -9.10965 | 2141 ft | 208 kts | 26° |
| 2026-05-07 17:22 | 38.83876 | -9.09957 | 2463 ft | 233 kts | 27° |
| 2026-05-07 17:22 | 38.85338 | -9.08832 | 2882 ft | 255 kts | 28° |
| 2026-05-07 17:23 | 38.86890 | -9.07627 | 3602 ft | 265 kts | 28° |
| 2026-05-07 17:23 | 38.88255 | -9.05985 | 4325 ft | 278 kts | 60° |
| 2026-05-07 17:23 | 38.88730 | -9.03603 | 5124 ft | 278 kts | 97° |
| 2026-05-07 17:23 | 38.88213 | -9.01259 | 6070 ft | 271 kts | 118° |
| 2026-05-07 17:24 | 38.87279 | -8.99193 | 7004 ft | 266 kts | 132° |
| 2026-05-07 17:24 | 38.85828 | -8.97759 | 7788 ft | 264 kts | 157° |
| 2026-05-07 17:24 | 38.84079 | -8.97055 | 8578 ft | 265 kts | 173° |
| 2026-05-07 17:24 | 38.82225 | -8.97049 | 9359 ft | 269 kts | 191° |
| 2026-05-07 17:25 | 38.80439 | -8.97795 | 10091 ft | 273 kts | 202° |
| 2026-05-07 17:25 | 38.78618 | -8.98753 | 10408 ft | 294 kts | 202° |
| 2026-05-07 17:25 | 38.76675 | -8.99790 | 10600 ft | 317 kts | 202° |
| 2026-05-07 17:25 | 38.74576 | -9.00917 | 10872 ft | 335 kts | 202° |
| 2026-05-07 17:26 | 38.72409 | -9.02084 | 11479 ft | 340 kts | 202° |
| 2026-05-07 17:26 | 38.70210 | -9.03269 | 12126 ft | 345 kts | 202° |
| 2026-05-07 17:26 | 38.67984 | -9.04465 | 12783 ft | 349 kts | 202° |
| 2026-05-07 17:26 | 38.65727 | -9.05673 | 13476 ft | 353 kts | 202° |
| 2026-05-07 17:27 | 38.63453 | -9.06887 | 14102 ft | 356 kts | 202° |
| 2026-05-07 17:27 | 38.61153 | -9.08115 | 14677 ft | 360 kts | 202° |
| 2026-05-07 17:27 | 38.58833 | -9.09354 | 15281 ft | 363 kts | 202° |
| 2026-05-07 17:27 | 38.56619 | -9.10900 | 15890 ft | 365 kts | 217° |
| 2026-05-07 17:28 | 38.54817 | -9.13214 | 16483 ft | 369 kts | 227° |
| 2026-05-07 17:28 | 38.53129 | -9.15698 | 17091 ft | 371 kts | 228° |
| 2026-05-07 17:28 | 38.51440 | -9.18199 | 17716 ft | 372 kts | 228° |
| 2026-05-07 17:28 | 38.49752 | -9.20703 | 18307 ft | 373 kts | 228° |
| 2026-05-07 17:29 | 38.48053 | -9.23220 | 18804 ft | 375 kts | 228° |
| 2026-05-07 17:29 | 38.46347 | -9.25746 | 19299 ft | 377 kts | 228° |
| 2026-05-07 17:29 | 38.44631 | -9.28277 | 19785 ft | 378 kts | 228° |
| 2026-05-07 17:29 | 38.42899 | -9.30820 | 20267 ft | 380 kts | 228° |
| 2026-05-07 17:30 | 38.41180 | -9.33337 | 20731 ft | 382 kts | 228° |
| 2026-05-07 17:30 | 38.39429 | -9.35899 | 21202 ft | 384 kts | 228° |
| 2026-05-07 17:30 | 38.37672 | -9.38473 | 21662 ft | 386 kts | 228° |
| 2026-05-07 17:30 | 38.35909 | -9.41058 | 22118 ft | 388 kts | 229° |
| 2026-05-07 17:31 | 38.34134 | -9.43659 | 22569 ft | 390 kts | 229° |
| 2026-05-07 17:31 | 38.32353 | -9.46268 | 23018 ft | 392 kts | 229° |
| 2026-05-07 17:31 | 38.30555 | -9.48898 | 23413 ft | 395 kts | 229° |
| 2026-05-07 17:31 | 38.28746 | -9.51539 | 23751 ft | 397 kts | 229° |
| 2026-05-07 17:32 | 38.26925 | -9.54198 | 24094 ft | 399 kts | 229° |
| 2026-05-07 17:32 | 38.25091 | -9.56872 | 24413 ft | 401 kts | 228° |
| 2026-05-07 17:32 | 38.23249 | -9.59556 | 24763 ft | 403 kts | 228° |
| 2026-05-07 17:32 | 38.21401 | -9.62245 | 25105 ft | 404 kts | 229° |
| 2026-05-07 17:33 | 38.19545 | -9.64946 | 25450 ft | 406 kts | 229° |
| 2026-05-07 17:33 | 38.17684 | -9.67652 | 25786 ft | 407 kts | 229° |
| 2026-05-07 17:33 | 38.15812 | -9.70366 | 26127 ft | 409 kts | 229° |
| 2026-05-07 17:33 | 38.13935 | -9.73088 | 26461 ft | 410 kts | 229° |
| 2026-05-07 17:34 | 38.12070 | -9.75790 | 26782 ft | 412 kts | 229° |
| 2026-05-07 17:34 | 38.10175 | -9.78528 | 27096 ft | 413 kts | 229° |
| 2026-05-07 17:34 | 38.08274 | -9.81275 | 27396 ft | 415 kts | 229° |
| 2026-05-07 17:34 | 38.06371 | -9.84029 | 27726 ft | 416 kts | 229° |
| 2026-05-07 17:35 | 38.04454 | -9.86796 | 28021 ft | 417 kts | 228° |
| 2026-05-07 17:35 | 38.02535 | -9.89565 | 28322 ft | 418 kts | 228° |
| 2026-05-07 17:35 | 38.00611 | -9.92343 | 28604 ft | 420 kts | 228° |
| 2026-05-07 17:35 | 37.98677 | -9.95130 | 28883 ft | 421 kts | 228° |
| 2026-05-07 17:36 | 37.96740 | -9.97916 | 29200 ft | 421 kts | 228° |
| 2026-05-07 17:36 | 37.94803 | -10.00696 | 29618 ft | 420 kts | 228° |
| 2026-05-07 17:36 | 37.92876 | -10.03460 | 30023 ft | 418 kts | 228° |
| 2026-05-07 17:36 | 37.90954 | -10.06216 | 30374 ft | 416 kts | 228° |
| 2026-05-07 17:37 | 37.89043 | -10.08961 | 30745 ft | 414 kts | 229° |
| 2026-05-07 17:37 | 37.87140 | -10.11694 | 30917 ft | 412 kts | 229° |
| 2026-05-07 17:37 | 37.83369 | -10.17108 | 30953 ft | 409 kts | 229° |
| 2026-05-07 17:38 | 37.79612 | -10.22488 | 30955 ft | 408 kts | 228° |
| 2026-05-07 17:38 | 37.75840 | -10.27851 | 30958 ft | 407 kts | 228° |
| 2026-05-07 17:39 | 37.72100 | -10.33174 | 30960 ft | 407 kts | 228° |
| 2026-05-07 17:39 | 37.68343 | -10.38514 | 30958 ft | 407 kts | 228° |
| 2026-05-07 17:40 | 37.64584 | -10.43856 | 30958 ft | 407 kts | 228° |
| 2026-05-07 17:40 | 37.60820 | -10.49195 | 30954 ft | 407 kts | 228° |
| 2026-05-07 17:41 | 37.57054 | -10.54515 | 30954 ft | 407 kts | 227° |
| 2026-05-07 17:41 | 37.53282 | -10.59832 | 30969 ft | 407 kts | 227° |
| 2026-05-07 17:42 | 37.49511 | -10.65151 | 30968 ft | 406 kts | 227° |
| 2026-05-07 17:42 | 37.45750 | -10.70456 | 30956 ft | 406 kts | 227° |
| 2026-05-07 17:43 | 37.41977 | -10.75766 | 30963 ft | 406 kts | 227° |
| 2026-05-07 17:43 | 37.38232 | -10.81014 | 30964 ft | 406 kts | 227° |
| 2026-05-07 17:44 | 37.34457 | -10.86292 | 30965 ft | 406 kts | 227° |
| 2026-05-07 17:44 | 37.30685 | -10.91566 | 30959 ft | 406 kts | 227° |